createdAt,value
2018-05-26T00:00:08.026Z,0
2018-05-26T00:01:08.275Z,0
2018-05-26T00:02:08.009Z,0
2018-05-26T00:03:08.004Z,0
2018-05-26T00:04:07.997Z,0
2018-05-26T00:05:08.253Z,0
2018-05-26T00:06:07.993Z,0
2018-05-26T00:07:07.977Z,0
2018-05-26T00:08:07.711Z,0
2018-05-26T00:09:08.479Z,0
2018-05-26T00:10:07.966Z,0
2018-05-26T00:11:07.942Z,0
2018-05-26T00:12:08.216Z,0
2018-05-26T00:13:08.457Z,0
2018-05-26T00:14:08.400Z,0
2018-05-26T00:15:07.918Z,0
2018-05-26T00:16:07.642Z,0
2018-05-26T00:17:07.897Z,0
2018-05-26T00:18:07.889Z,0
2018-05-26T00:19:08.170Z,0
2018-05-26T00:20:08.425Z,0
2018-05-26T00:21:07.859Z,0
2018-05-26T00:22:08.416Z,0
2018-05-26T00:23:08.102Z,0
2018-05-26T00:24:08.358Z,0
2018-05-26T00:25:08.088Z,0
2018-05-26T00:26:07.895Z,0
2018-05-26T00:27:08.072Z,0
2018-05-26T00:28:08.357Z,0
2018-05-26T00:29:07.537Z,0
2018-05-26T00:30:07.789Z,0
2018-05-26T00:31:07.781Z,0
2018-05-26T00:32:08.300Z,0
2018-05-26T00:33:07.508Z,0
2018-05-26T00:34:08.021Z,0
2018-05-26T00:35:08.681Z,0
2018-05-26T00:36:08.256Z,0
2018-05-26T00:37:07.744Z,0
2018-05-26T00:38:08.034Z,0
2018-05-26T00:39:07.717Z,0
2018-05-26T00:40:07.965Z,0
2018-05-26T00:41:07.705Z,0
2018-05-26T00:42:07.956Z,0
2018-05-26T00:43:08.253Z,0
2018-05-26T00:44:07.680Z,0
2018-05-26T00:45:07.932Z,0
2018-05-26T00:46:07.659Z,0
2018-05-26T00:47:07.681Z,0
2018-05-26T00:48:08.383Z,0
2018-05-26T00:49:07.901Z,0
2018-05-26T00:50:07.629Z,0
2018-05-26T00:51:08.142Z,0
2018-05-26T00:52:07.875Z,0
2018-05-26T00:53:07.604Z,0
2018-05-26T00:54:07.595Z,0
2018-05-26T00:55:07.857Z,0
2018-05-26T00:56:08.106Z,0
2018-05-26T00:57:07.840Z,0
2018-05-26T00:58:07.555Z,0
2018-05-26T00:59:08.077Z,0
2018-05-26T01:00:07.540Z,0
2018-05-26T01:01:07.532Z,0
2018-05-26T01:02:08.045Z,0
2018-05-26T01:03:08.084Z,0
2018-05-26T01:04:06.991Z,0
2018-05-26T01:05:07.517Z,0
2018-05-26T01:06:08.016Z,0
2018-05-26T01:07:07.745Z,0
2018-05-26T01:08:07.742Z,0
2018-05-26T01:09:07.746Z,0
2018-05-26T01:10:07.986Z,0
2018-05-26T01:11:07.718Z,0
2018-05-26T01:12:07.700Z,0
2018-05-26T01:13:07.436Z,0
2018-05-26T01:14:07.425Z,0
2018-05-26T01:15:07.953Z,0
2018-05-26T01:16:07.675Z,0
2018-05-26T01:17:07.397Z,0
2018-05-26T01:18:07.394Z,0
2018-05-26T01:19:07.908Z,0
2018-05-26T01:20:07.643Z,0
2018-05-26T01:21:07.381Z,0
2018-05-26T01:22:07.895Z,0
2018-05-26T01:23:07.093Z,0
2018-05-26T01:24:07.343Z,0
2018-05-26T01:25:07.854Z,0
2018-05-26T01:26:07.861Z,0
2018-05-26T01:27:07.061Z,0
2018-05-26T01:28:07.309Z,0
2018-05-26T01:29:07.586Z,0
2018-05-26T01:30:07.590Z,0
2018-05-26T01:31:07.280Z,0
2018-05-26T01:32:07.556Z,0
2018-05-26T01:33:07.528Z,0
2018-05-26T01:34:07.515Z,0
2018-05-26T01:35:07.251Z,0
2018-05-26T01:36:07.505Z,0
2018-05-26T01:37:07.216Z,0
2018-05-26T01:38:06.979Z,0
2018-05-26T01:39:07.218Z,0
2018-05-26T01:40:07.466Z,0
2018-05-26T01:41:07.199Z,0
2018-05-26T01:42:07.191Z,0
2018-05-26T01:43:07.435Z,0
2018-05-26T01:44:07.207Z,0
2018-05-26T01:45:07.174Z,0
2018-05-26T01:46:06.898Z,0
2018-05-26T01:47:06.893Z,0
2018-05-26T01:48:06.881Z,0
2018-05-26T01:49:07.390Z,0
2018-05-26T01:50:07.123Z,0
2018-05-26T01:51:07.411Z,0
2018-05-26T01:52:07.369Z,0
2018-05-26T01:53:07.100Z,0
2018-05-26T01:54:07.084Z,0
2018-05-26T01:55:07.649Z,0
2018-05-26T01:56:07.592Z,0
2018-05-26T01:57:06.804Z,0
2018-05-26T01:58:07.061Z,0
2018-05-26T01:59:07.586Z,0
2018-05-26T02:00:07.036Z,0
2018-05-26T02:01:07.526Z,0
2018-05-26T02:02:07.017Z,0
2018-05-26T02:03:07.285Z,0
2018-05-26T02:04:07.001Z,0
2018-05-26T02:05:07.514Z,0
2018-05-26T02:06:06.465Z,0
2018-05-26T02:07:07.497Z,0
2018-05-26T02:08:06.983Z,0
2018-05-26T02:09:06.958Z,0
2018-05-26T02:10:07.469Z,0
2018-05-26T02:11:07.162Z,0
2018-05-26T02:12:07.185Z,0
2018-05-26T02:13:07.195Z,0
2018-05-26T02:14:07.170Z,0
2018-05-26T02:15:06.902Z,0
2018-05-26T02:16:07.152Z,0
2018-05-26T02:17:06.886Z,0
2018-05-26T02:18:07.160Z,0
2018-05-26T02:19:07.396Z,0
2018-05-26T02:20:06.862Z,0
2018-05-26T02:21:07.115Z,0
2018-05-26T02:22:06.593Z,0
2018-05-26T02:23:07.353Z,0
2018-05-26T02:24:06.850Z,0
2018-05-26T02:25:07.336Z,0
2018-05-26T02:26:07.321Z,0
2018-05-26T02:27:07.059Z,0
2018-05-26T02:28:07.092Z,0
2018-05-26T02:29:06.782Z,0
2018-05-26T02:30:07.058Z,0
2018-05-26T02:31:06.505Z,0
2018-05-26T02:32:06.769Z,0
2018-05-26T02:33:07.007Z,0
2018-05-26T02:34:07.016Z,0
2018-05-26T02:35:06.986Z,0
2018-05-26T02:36:07.265Z,0
2018-05-26T02:37:06.458Z,0
2018-05-26T02:38:07.219Z,0
2018-05-26T02:39:07.212Z,0
2018-05-26T02:40:07.403Z,0
2018-05-26T02:41:06.950Z,0
2018-05-26T02:42:07.193Z,0
2018-05-26T02:43:06.674Z,0
2018-05-26T02:44:06.659Z,0
2018-05-26T02:45:07.158Z,0
2018-05-26T02:46:06.899Z,0
2018-05-26T02:47:06.620Z,0
2018-05-26T02:48:06.650Z,0
2018-05-26T02:49:06.610Z,0
2018-05-26T02:50:06.600Z,0
2018-05-26T02:51:06.867Z,0
2018-05-26T02:52:07.081Z,0
2018-05-26T02:53:06.572Z,0
2018-05-26T02:54:06.830Z,0
2018-05-26T02:55:06.550Z,0
2018-05-26T02:56:06.825Z,0
2018-05-26T02:57:07.093Z,0
2018-05-26T02:58:07.074Z,0
2018-05-26T02:59:06.785Z,0
2018-05-26T03:00:06.771Z,0
2018-05-26T03:01:07.016Z,0
2018-05-26T03:02:06.502Z,0
2018-05-26T03:03:06.750Z,0
2018-05-26T03:04:06.216Z,0
2018-05-26T03:05:06.740Z,5
2018-05-26T03:06:06.476Z,5
2018-05-26T03:07:06.705Z,5
2018-05-26T03:08:06.448Z,5
2018-05-26T03:09:06.695Z,5
2018-05-26T03:10:06.408Z,5
2018-05-26T03:11:06.673Z,5
2018-05-26T03:12:06.666Z,5
2018-05-26T03:13:06.136Z,5
2018-05-26T03:14:06.646Z,10
2018-05-26T03:15:06.644Z,10
2018-05-26T03:16:06.644Z,10
2018-05-26T03:17:06.873Z,10
2018-05-26T03:18:06.346Z,10
2018-05-26T03:19:06.075Z,10
2018-05-26T03:20:06.330Z,10
2018-05-26T03:21:06.804Z,15
2018-05-26T03:22:06.574Z,15
2018-05-26T03:23:06.557Z,15
2018-05-26T03:24:06.295Z,15
2018-05-26T03:25:06.797Z,15
2018-05-26T03:26:06.859Z,15
2018-05-26T03:27:06.523Z,20
2018-05-26T03:28:06.782Z,20
2018-05-26T03:29:06.247Z,20
2018-05-26T03:30:05.730Z,20
2018-05-26T03:31:05.983Z,20
2018-05-26T03:32:06.501Z,25
2018-05-26T03:33:06.728Z,25
2018-05-26T03:34:06.464Z,25
2018-05-26T03:35:06.192Z,25
2018-05-26T03:36:06.449Z,25
2018-05-26T03:37:06.435Z,30
2018-05-26T03:38:06.686Z,30
2018-05-26T03:39:06.674Z,30
2018-05-26T03:40:06.672Z,30
2018-05-26T03:41:06.630Z,35
2018-05-26T03:42:06.269Z,35
2018-05-26T03:43:06.654Z,35
2018-05-26T03:44:06.377Z,35
2018-05-26T03:45:05.851Z,35
2018-05-26T03:46:06.355Z,40
2018-05-26T03:47:06.345Z,40
2018-05-26T03:48:06.117Z,40
2018-05-26T03:49:06.332Z,40
2018-05-26T03:50:06.324Z,45
2018-05-26T03:51:05.795Z,45
2018-05-26T03:52:06.304Z,45
2018-05-26T03:53:06.307Z,45
2018-05-26T03:54:06.284Z,50
2018-05-26T03:55:06.019Z,50
2018-05-26T03:56:06.553Z,50
2018-05-26T03:57:06.521Z,55
2018-05-26T03:58:05.737Z,55
2018-05-26T03:59:06.261Z,55
2018-05-26T04:00:05.970Z,55
2018-05-26T04:01:06.225Z,55
2018-05-26T04:02:05.695Z,60
2018-05-26T04:03:06.519Z,60
2018-05-26T04:04:06.457Z,60
2018-05-26T04:05:06.185Z,60
2018-05-26T04:06:06.220Z,65
2018-05-26T04:07:05.908Z,65
2018-05-26T04:08:05.898Z,65
2018-05-26T04:09:06.454Z,65
2018-05-26T04:10:06.153Z,65
2018-05-26T04:11:05.878Z,70
2018-05-26T04:12:06.389Z,70
2018-05-26T04:13:06.400Z,70
2018-05-26T04:14:05.848Z,70
2018-05-26T04:15:05.839Z,75
2018-05-26T04:16:06.360Z,75
2018-05-26T04:17:06.345Z,75
2018-05-26T04:18:05.834Z,75
2018-05-26T04:19:06.062Z,75
2018-05-26T04:20:05.805Z,80
2018-05-26T04:21:05.785Z,80
2018-05-26T04:22:06.040Z,80
2018-05-26T04:23:06.297Z,80
2018-05-26T04:24:05.774Z,85
2018-05-26T04:25:05.771Z,85
2018-05-26T04:26:06.013Z,85
2018-05-26T04:27:05.995Z,85
2018-05-26T04:28:06.269Z,90
2018-05-26T04:29:06.292Z,90
2018-05-26T04:30:05.716Z,90
2018-05-26T04:31:05.964Z,90
2018-05-26T04:32:05.442Z,95
2018-05-26T04:33:06.223Z,95
2018-05-26T04:34:06.210Z,95
2018-05-26T04:35:06.403Z,95
2018-05-26T04:36:06.091Z,95
2018-05-26T04:37:06.509Z,100
2018-05-26T04:38:06.201Z,100
2018-05-26T04:39:06.426Z,100
2018-05-26T04:40:05.875Z,100
2018-05-26T04:41:05.846Z,100
2018-05-26T04:42:05.908Z,105
2018-05-26T04:43:05.595Z,105
2018-05-26T04:44:05.858Z,105
2018-05-26T04:45:05.853Z,105
2018-05-26T04:46:05.583Z,110
2018-05-26T04:47:06.089Z,110
2018-05-26T04:48:05.581Z,110
2018-05-26T04:49:05.300Z,110
2018-05-26T04:50:05.926Z,110
2018-05-26T04:51:05.807Z,110
2018-05-26T04:52:06.083Z,110
2018-05-26T04:53:05.790Z,115
2018-05-26T04:54:05.520Z,115
2018-05-26T04:55:05.515Z,115
2018-05-26T04:56:06.023Z,115
2018-05-26T04:57:06.009Z,120
2018-05-26T04:58:06.008Z,120
2018-05-26T04:59:05.998Z,120
2018-05-26T05:00:05.737Z,120
2018-05-26T05:01:05.725Z,120
2018-05-26T05:02:05.720Z,120
2018-05-26T05:03:05.738Z,125
2018-05-26T05:04:05.718Z,125
2018-05-26T05:05:05.716Z,125
2018-05-26T05:06:05.428Z,125
2018-05-26T05:07:05.755Z,125
2018-05-26T05:08:05.415Z,125
2018-05-26T05:09:05.662Z,130
2018-05-26T05:10:05.148Z,130
2018-05-26T05:11:05.666Z,130
2018-05-26T05:12:05.660Z,130
2018-05-26T05:13:05.893Z,130
2018-05-26T05:14:05.365Z,130
2018-05-26T05:15:05.620Z,135
2018-05-26T05:16:05.615Z,135
2018-05-26T05:17:05.083Z,135
2018-05-26T05:18:05.855Z,135
2018-05-26T05:19:05.605Z,135
2018-05-26T05:20:05.581Z,135
2018-05-26T05:21:05.570Z,135
2018-05-26T05:22:05.604Z,140
2018-05-26T05:23:05.561Z,140
2018-05-26T05:24:05.578Z,140
2018-05-26T05:25:05.803Z,140
2018-05-26T05:26:05.551Z,140
2018-05-26T05:27:05.536Z,140
2018-05-26T05:28:05.527Z,140
2018-05-26T05:29:05.529Z,140
2018-05-26T05:30:05.544Z,140
2018-05-26T05:31:05.252Z,145
2018-05-26T05:32:05.497Z,145
2018-05-26T05:33:05.494Z,145
2018-05-26T05:34:05.775Z,145
2018-05-26T05:35:05.483Z,145
2018-05-26T05:36:05.214Z,145
2018-05-26T05:37:05.461Z,145
2018-05-26T05:38:05.715Z,145
2018-05-26T05:39:05.456Z,145
2018-05-26T05:40:05.735Z,150
2018-05-26T05:41:05.706Z,150
2018-05-26T05:42:05.180Z,150
2018-05-26T05:43:05.163Z,150
2018-05-26T05:44:05.167Z,150
2018-05-26T05:45:05.412Z,150
2018-05-26T05:46:05.413Z,150
2018-05-26T05:47:05.401Z,150
2018-05-26T05:48:05.395Z,150
2018-05-26T05:49:05.133Z,155
2018-05-26T05:50:05.635Z,155
2018-05-26T05:51:05.375Z,155
2018-05-26T05:52:05.649Z,155
2018-05-26T05:53:05.468Z,155
2018-05-26T05:54:05.358Z,160
2018-05-26T05:55:05.357Z,160
2018-05-26T05:56:05.117Z,160
2018-05-26T05:57:05.244Z,160
2018-05-26T05:58:05.353Z,160
2018-05-26T05:59:05.244Z,160
2018-05-26T06:00:05.588Z,160
2018-05-26T06:01:04.896Z,160
2018-05-26T06:02:05.054Z,160
2018-05-26T06:03:05.580Z,160
2018-05-26T06:04:05.047Z,160
2018-05-26T06:05:05.566Z,165
2018-05-26T06:06:05.347Z,165
2018-05-26T06:07:05.565Z,165
2018-05-26T06:08:05.569Z,165
2018-05-26T06:09:05.538Z,165
2018-05-26T06:10:05.521Z,165
2018-05-26T06:11:05.006Z,165
2018-05-26T06:12:05.008Z,160
2018-05-26T06:13:05.008Z,165
2018-05-26T06:14:04.988Z,165
2018-05-26T06:15:05.770Z,165
2018-05-26T06:16:05.237Z,165
2018-05-26T06:17:05.501Z,165
2018-05-26T06:18:04.969Z,165
2018-05-26T06:19:05.246Z,165
2018-05-26T06:20:05.217Z,165
2018-05-26T06:21:05.672Z,170
2018-05-26T06:22:04.952Z,170
2018-05-26T06:23:05.201Z,170
2018-05-26T06:24:05.159Z,170
2018-05-26T06:25:05.196Z,170
2018-05-26T06:26:05.191Z,170
2018-05-26T06:27:04.415Z,170
2018-05-26T06:28:05.128Z,175
2018-05-26T06:29:05.191Z,175
2018-05-26T06:30:05.192Z,185
2018-05-26T06:31:04.948Z,200
2018-05-26T06:32:04.646Z,205
2018-05-26T06:33:05.162Z,220
2018-05-26T06:34:05.158Z,230
2018-05-26T06:35:04.897Z,235
2018-05-26T06:36:05.389Z,245
2018-05-26T06:37:05.145Z,240
2018-05-26T06:38:04.889Z,260
2018-05-26T06:39:05.140Z,290
2018-05-26T06:40:05.142Z,345
2018-05-26T06:41:04.875Z,395
2018-05-26T06:42:05.634Z,395
2018-05-26T06:43:05.117Z,360
2018-05-26T06:44:04.858Z,380
2018-05-26T06:45:04.856Z,410
2018-05-26T06:46:04.860Z,355
2018-05-26T06:47:05.108Z,315
2018-05-26T06:48:05.111Z,365
2018-05-26T06:49:05.377Z,360
2018-05-26T06:50:05.103Z,370
2018-05-26T06:51:05.112Z,465
2018-05-26T06:52:05.393Z,510
2018-05-26T06:53:05.104Z,510
2018-05-26T06:54:04.892Z,505
2018-05-26T06:55:04.599Z,500
2018-05-26T06:56:04.581Z,490
2018-05-26T06:57:05.357Z,485
2018-05-26T06:58:05.380Z,480
2018-05-26T06:59:04.844Z,475
2018-05-26T07:00:05.098Z,480
2018-05-26T07:01:04.855Z,485
2018-05-26T07:02:05.121Z,490
2018-05-26T07:03:05.385Z,485
2018-05-26T07:04:05.141Z,465
2018-05-26T07:05:04.865Z,450
2018-05-26T07:06:04.857Z,455
2018-05-26T07:07:05.381Z,460
2018-05-26T07:08:05.121Z,455
2018-05-26T07:09:05.137Z,465
2018-05-26T07:10:05.652Z,460
2018-05-26T07:11:05.391Z,475
2018-05-26T07:12:04.616Z,490
2018-05-26T07:13:04.883Z,495
2018-05-26T07:14:05.149Z,475
2018-05-26T07:15:05.154Z,455
2018-05-26T07:16:05.154Z,450
2018-05-26T07:17:05.177Z,450
2018-05-26T07:18:04.911Z,455
2018-05-26T07:19:04.908Z,450
2018-05-26T07:20:04.920Z,450
2018-05-26T07:21:04.677Z,445
2018-05-26T07:22:04.664Z,440
2018-05-26T07:23:04.690Z,445
2018-05-26T07:24:04.955Z,445
2018-05-26T07:25:04.951Z,445
2018-05-26T07:26:04.950Z,445
2018-05-26T07:27:05.272Z,445
2018-05-26T07:28:05.032Z,440
2018-05-26T07:29:05.228Z,435
2018-05-26T07:30:05.246Z,430
2018-05-26T07:31:04.467Z,420
2018-05-26T07:32:05.294Z,415
2018-05-26T07:33:05.272Z,420
2018-05-26T07:34:05.001Z,430
2018-05-26T07:35:05.530Z,435
2018-05-26T07:36:05.275Z,440
2018-05-26T07:37:05.538Z,435
2018-05-26T07:38:05.560Z,435
2018-05-26T07:39:05.307Z,360
2018-05-26T07:40:04.784Z,420
2018-05-26T07:41:05.052Z,390
2018-05-26T07:42:05.322Z,340
2018-05-26T07:43:05.597Z,280
2018-05-26T07:44:04.819Z,260
2018-05-26T07:45:05.341Z,250
2018-05-26T07:46:05.584Z,240
2018-05-26T07:47:05.335Z,235
2018-05-26T07:48:05.392Z,230
2018-05-26T07:49:04.850Z,225
2018-05-26T07:50:04.858Z,225
2018-05-26T07:51:05.644Z,220
2018-05-26T07:52:05.418Z,220
2018-05-26T07:53:05.479Z,215
2018-05-26T07:54:05.640Z,215
2018-05-26T07:55:05.414Z,215
2018-05-26T07:56:05.440Z,215
2018-05-26T07:57:05.188Z,215
2018-05-26T07:58:05.723Z,215
2018-05-26T07:59:05.773Z,215
2018-05-26T08:00:05.273Z,215
2018-05-26T08:01:05.732Z,215
2018-05-26T08:02:05.458Z,215
2018-05-26T08:03:05.466Z,215
2018-05-26T08:04:05.499Z,215
2018-05-26T08:05:05.220Z,210
2018-05-26T08:06:05.480Z,210
2018-05-26T08:07:05.485Z,210
2018-05-26T08:08:05.488Z,210
2018-05-26T08:09:05.238Z,210
2018-05-26T08:10:05.247Z,210
2018-05-26T08:11:05.286Z,210
2018-05-26T08:12:05.261Z,210
2018-05-26T08:13:05.516Z,210
2018-05-26T08:14:05.780Z,215
2018-05-26T08:15:05.743Z,215
2018-05-26T08:16:05.795Z,215
2018-05-26T08:17:05.938Z,215
2018-05-26T08:18:05.807Z,215
2018-05-26T08:19:05.584Z,210
2018-05-26T08:20:05.847Z,210
2018-05-26T08:21:05.293Z,200
2018-05-26T08:22:05.302Z,200
2018-05-26T08:23:05.305Z,190
2018-05-26T08:24:05.565Z,190
2018-05-26T08:25:05.837Z,185
2018-05-26T08:26:05.828Z,185
2018-05-26T08:27:05.856Z,200
2018-05-26T08:28:05.323Z,215
2018-05-26T08:29:05.322Z,205
2018-05-26T08:30:05.349Z,215
2018-05-26T08:31:05.582Z,220
2018-05-26T08:32:05.328Z,220
2018-05-26T08:33:05.616Z,205
2018-05-26T08:34:06.069Z,220
2018-05-26T08:35:05.634Z,210
2018-05-26T08:36:05.597Z,205
2018-05-26T08:37:05.618Z,205
2018-05-26T08:38:04.827Z,205
2018-05-26T08:39:05.102Z,225
2018-05-26T08:40:05.091Z,225
2018-05-26T08:41:05.657Z,220
2018-05-26T08:42:05.875Z,190
2018-05-26T08:43:05.610Z,185
2018-05-26T08:44:05.613Z,190
2018-05-26T08:45:05.358Z,195
2018-05-26T08:46:05.097Z,190
2018-05-26T08:47:05.876Z,195
2018-05-26T08:48:05.623Z,235
2018-05-26T08:49:05.364Z,245
2018-05-26T08:50:05.900Z,240
2018-05-26T08:51:05.626Z,240
2018-05-26T08:52:05.631Z,245
2018-05-26T08:53:05.622Z,260
2018-05-26T08:54:05.369Z,275
2018-05-26T08:55:05.369Z,270
2018-05-26T08:56:05.650Z,265
2018-05-26T08:57:05.900Z,270
2018-05-26T08:58:05.115Z,255
2018-05-26T08:59:05.675Z,280
2018-05-26T09:00:05.658Z,290
2018-05-26T09:01:05.116Z,290
2018-05-26T09:02:05.657Z,305
2018-05-26T09:03:05.639Z,300
2018-05-26T09:04:05.647Z,285
2018-05-26T09:05:05.641Z,275
2018-05-26T09:06:05.379Z,260
2018-05-26T09:07:05.382Z,250
2018-05-26T09:08:05.924Z,230
2018-05-26T09:09:05.898Z,220
2018-05-26T09:10:05.914Z,230
2018-05-26T09:11:05.649Z,240
2018-05-26T09:12:05.926Z,270
2018-05-26T09:13:05.901Z,315
2018-05-26T09:14:05.650Z,340
2018-05-26T09:15:06.246Z,360
2018-05-26T09:16:05.389Z,350
2018-05-26T09:17:05.945Z,375
2018-05-26T09:18:05.908Z,375
2018-05-26T09:19:05.618Z,360
2018-05-26T09:20:05.671Z,350
2018-05-26T09:21:05.916Z,345
2018-05-26T09:22:06.029Z,330
2018-05-26T09:23:05.677Z,335
2018-05-26T09:24:05.680Z,380
2018-05-26T09:25:05.530Z,395
2018-05-26T09:26:05.403Z,390
2018-05-26T09:27:05.931Z,380
2018-05-26T09:28:05.403Z,365
2018-05-26T09:29:05.668Z,355
2018-05-26T09:30:06.150Z,345
2018-05-26T09:31:05.957Z,325
2018-05-26T09:32:05.666Z,310
2018-05-26T09:33:05.936Z,290
2018-05-26T09:34:05.630Z,275
2018-05-26T09:35:05.933Z,275
2018-05-26T09:36:05.682Z,270
2018-05-26T09:37:04.899Z,265
2018-05-26T09:38:05.423Z,265
2018-05-26T09:39:05.920Z,265
2018-05-26T09:40:05.514Z,260
2018-05-26T09:41:05.681Z,260
2018-05-26T09:42:05.686Z,255
2018-05-26T09:43:07.497Z,260
2018-05-26T09:44:05.682Z,265
2018-05-26T09:45:05.171Z,265
2018-05-26T09:46:05.443Z,260
2018-05-26T09:47:05.453Z,255
2018-05-26T09:48:05.956Z,250
2018-05-26T09:49:05.898Z,250
2018-05-26T09:50:05.442Z,245
2018-05-26T09:51:05.974Z,240
2018-05-26T09:52:05.961Z,240
2018-05-26T09:53:05.702Z,235
2018-05-26T09:54:05.446Z,235
2018-05-26T09:55:05.191Z,230
2018-05-26T09:56:05.853Z,230
2018-05-26T09:57:05.194Z,230
2018-05-26T09:58:05.453Z,225
2018-05-26T09:59:05.728Z,225
2018-05-26T10:00:05.457Z,225
2018-05-26T10:01:05.716Z,225
2018-05-26T10:02:05.725Z,225
2018-05-26T10:03:05.948Z,225
2018-05-26T10:04:05.731Z,225
2018-05-26T10:05:05.746Z,225
2018-05-26T10:06:05.737Z,230
2018-05-26T10:07:05.732Z,230
2018-05-26T10:08:05.743Z,235
2018-05-26T10:09:05.479Z,245
2018-05-26T10:10:05.756Z,245
2018-05-26T10:11:05.717Z,245
2018-05-26T10:12:06.009Z,240
2018-05-26T10:13:05.745Z,235
2018-05-26T10:14:05.247Z,235
2018-05-26T10:15:05.984Z,235
2018-05-26T10:16:05.749Z,230
2018-05-26T10:17:06.004Z,230
2018-05-26T10:18:05.237Z,235
2018-05-26T10:19:05.758Z,235
2018-05-26T10:20:05.863Z,230
2018-05-26T10:21:06.046Z,230
2018-05-26T10:22:05.762Z,230
2018-05-26T10:23:05.515Z,235
2018-05-26T10:24:05.984Z,235
2018-05-26T10:25:05.776Z,240
2018-05-26T10:26:05.507Z,250
2018-05-26T10:27:05.773Z,260
2018-05-26T10:28:06.030Z,260
2018-05-26T10:29:05.776Z,240
2018-05-26T10:30:06.346Z,255
2018-05-26T10:31:05.758Z,260
2018-05-26T10:32:05.518Z,260
2018-05-26T10:33:05.531Z,260
2018-05-26T10:34:05.817Z,255
2018-05-26T10:35:05.527Z,255
2018-05-26T10:36:05.529Z,255
2018-05-26T10:37:05.827Z,255
2018-05-26T10:38:05.856Z,250
2018-05-26T10:39:05.790Z,245
2018-05-26T10:40:05.542Z,240
2018-05-26T10:41:05.791Z,240
2018-05-26T10:42:06.054Z,245
2018-05-26T10:43:06.062Z,245
2018-05-26T10:44:05.800Z,255
2018-05-26T10:45:05.565Z,260
2018-05-26T10:46:05.565Z,275
2018-05-26T10:47:05.554Z,280
2018-05-26T10:48:05.806Z,285
2018-05-26T10:49:05.815Z,285
2018-05-26T10:50:06.054Z,285
2018-05-26T10:51:05.833Z,285
2018-05-26T10:52:05.557Z,280
2018-05-26T10:53:06.038Z,270
2018-05-26T10:54:06.305Z,270
2018-05-26T10:55:06.099Z,275
2018-05-26T10:56:05.919Z,275
2018-05-26T10:57:05.840Z,270
2018-05-26T10:58:05.317Z,265
2018-05-26T10:59:06.122Z,260
2018-05-26T11:00:06.099Z,260
2018-05-26T11:01:05.599Z,250
2018-05-26T11:02:05.851Z,270
2018-05-26T11:03:05.483Z,270
2018-05-26T11:04:06.193Z,275
2018-05-26T11:05:05.593Z,280
2018-05-26T11:06:05.419Z,260
2018-05-26T11:07:05.596Z,270
2018-05-26T11:08:05.593Z,270
2018-05-26T11:09:06.322Z,280
2018-05-26T11:10:05.882Z,300
2018-05-26T11:11:05.861Z,305
2018-05-26T11:12:06.132Z,310
2018-05-26T11:13:06.124Z,310
2018-05-26T11:14:05.610Z,320
2018-05-26T11:15:06.167Z,340
2018-05-26T11:16:05.881Z,355
2018-05-26T11:17:05.974Z,335
2018-05-26T11:18:06.776Z,345
2018-05-26T11:19:05.683Z,355
2018-05-26T11:20:06.184Z,355
2018-05-26T11:21:06.145Z,345
2018-05-26T11:22:05.909Z,335
2018-05-26T11:23:05.957Z,335
2018-05-26T11:24:05.478Z,340
2018-05-26T11:25:06.217Z,330
2018-05-26T11:26:05.911Z,330
2018-05-26T11:27:05.901Z,330
2018-05-26T11:28:05.903Z,335
2018-05-26T11:29:06.239Z,350
2018-05-26T11:30:05.653Z,375
2018-05-26T11:31:06.399Z,380
2018-05-26T11:32:05.916Z,355
2018-05-26T11:33:05.936Z,340
2018-05-26T11:34:05.405Z,325
2018-05-26T11:35:05.929Z,300
2018-05-26T11:36:05.928Z,295
2018-05-26T11:37:05.418Z,275
2018-05-26T11:38:05.952Z,255
2018-05-26T11:39:06.179Z,240
2018-05-26T11:40:05.936Z,225
2018-05-26T11:41:06.199Z,205
2018-05-26T11:42:05.946Z,190
2018-05-26T11:43:06.200Z,185
2018-05-26T11:44:06.215Z,185
2018-05-26T11:45:05.950Z,180
2018-05-26T11:46:05.949Z,180
2018-05-26T11:47:05.432Z,190
2018-05-26T11:48:06.188Z,200
2018-05-26T11:49:05.956Z,210
2018-05-26T11:50:05.956Z,210
2018-05-26T11:51:05.707Z,215
2018-05-26T11:52:05.731Z,215
2018-05-26T11:53:05.962Z,205
2018-05-26T11:54:06.245Z,195
2018-05-26T11:55:05.983Z,190
2018-05-26T11:56:05.656Z,180
2018-05-26T11:57:05.977Z,175
2018-05-26T11:58:05.995Z,180
2018-05-26T11:59:05.456Z,185
2018-05-26T12:00:05.978Z,185
2018-05-26T12:01:06.237Z,200
2018-05-26T12:02:06.086Z,195
2018-05-26T12:03:05.462Z,195
2018-05-26T12:04:05.720Z,185
2018-05-26T12:05:05.735Z,170
2018-05-26T12:06:05.987Z,160
2018-05-26T12:07:05.727Z,160
2018-05-26T12:08:05.981Z,150
2018-05-26T12:09:06.023Z,145
2018-05-26T12:10:05.475Z,150
2018-05-26T12:11:06.192Z,145
2018-05-26T12:12:06.032Z,145
2018-05-26T12:13:05.734Z,150
2018-05-26T12:14:05.997Z,160
2018-05-26T12:15:05.995Z,160
2018-05-26T12:16:05.739Z,170
2018-05-26T12:17:05.745Z,175
2018-05-26T12:18:05.745Z,190
2018-05-26T12:19:06.294Z,210
2018-05-26T12:20:05.742Z,230
2018-05-26T12:21:06.038Z,245
2018-05-26T12:22:05.748Z,255
2018-05-26T12:23:06.014Z,255
2018-05-26T12:24:06.012Z,260
2018-05-26T12:25:05.769Z,270
2018-05-26T12:26:05.503Z,280
2018-05-26T12:27:06.144Z,285
2018-05-26T12:28:06.294Z,300
2018-05-26T12:29:06.036Z,300
2018-05-26T12:30:06.030Z,305
2018-05-26T12:31:05.756Z,305
2018-05-26T12:32:06.017Z,320
2018-05-26T12:33:06.022Z,325
2018-05-26T12:34:06.469Z,335
2018-05-26T12:35:06.015Z,345
2018-05-26T12:36:05.758Z,375
2018-05-26T12:37:05.505Z,400
2018-05-26T12:38:05.772Z,410
2018-05-26T12:39:05.767Z,440
2018-05-26T12:40:06.149Z,460
2018-05-26T12:41:06.033Z,460
2018-05-26T12:42:06.028Z,455
2018-05-26T12:43:06.285Z,465
2018-05-26T12:44:05.769Z,480
2018-05-26T12:45:06.299Z,500
2018-05-26T12:46:06.038Z,505
2018-05-26T12:47:05.783Z,500
2018-05-26T12:48:06.040Z,490
2018-05-26T12:49:05.784Z,485
2018-05-26T12:50:06.295Z,475
2018-05-26T12:51:06.044Z,460
2018-05-26T12:52:06.305Z,440
2018-05-26T12:53:05.788Z,420
2018-05-26T12:54:06.304Z,395
2018-05-26T12:55:05.797Z,380
2018-05-26T12:56:06.060Z,365
2018-05-26T12:57:06.068Z,365
2018-05-26T12:58:06.328Z,360
2018-05-26T12:59:05.812Z,345
2018-05-26T13:00:05.544Z,330
2018-05-26T13:01:06.082Z,320
2018-05-26T13:02:05.834Z,320
2018-05-26T13:03:06.340Z,325
2018-05-26T13:04:05.815Z,330
2018-05-26T13:05:06.071Z,330
2018-05-26T13:06:06.124Z,325
2018-05-26T13:07:06.341Z,315
2018-05-26T13:08:06.338Z,310
2018-05-26T13:09:05.832Z,305
2018-05-26T13:10:05.827Z,310
2018-05-26T13:11:06.093Z,310
2018-05-26T13:12:06.351Z,310
2018-05-26T13:13:06.098Z,315
2018-05-26T13:14:05.835Z,320
2018-05-26T13:15:05.839Z,325
2018-05-26T13:16:05.840Z,330
2018-05-26T13:17:06.384Z,340
2018-05-26T13:18:05.846Z,340
2018-05-26T13:19:06.110Z,340
2018-05-26T13:20:06.109Z,330
2018-05-26T13:21:05.859Z,325
2018-05-26T13:22:06.085Z,320
2018-05-26T13:23:06.116Z,315
2018-05-26T13:24:06.117Z,310
2018-05-26T13:25:06.135Z,310
2018-05-26T13:26:05.865Z,310
2018-05-26T13:27:06.395Z,310
2018-05-26T13:28:05.874Z,320
2018-05-26T13:29:06.141Z,320
2018-05-26T13:30:06.138Z,325
2018-05-26T13:31:06.141Z,325
2018-05-26T13:32:06.139Z,325
2018-05-26T13:33:06.149Z,320
2018-05-26T13:34:06.160Z,320
2018-05-26T13:35:06.438Z,320
2018-05-26T13:36:05.892Z,320
2018-05-26T13:37:05.918Z,315
2018-05-26T13:38:05.896Z,315
2018-05-26T13:39:05.650Z,305
2018-05-26T13:40:06.175Z,305
2018-05-26T13:41:05.906Z,310
2018-05-26T13:42:06.164Z,300
2018-05-26T13:43:05.911Z,290
2018-05-26T13:44:05.658Z,275
2018-05-26T13:45:06.256Z,265
2018-05-26T13:46:05.922Z,255
2018-05-26T13:47:06.188Z,240
2018-05-26T13:48:05.948Z,230
2018-05-26T13:49:05.964Z,230
2018-05-26T13:50:06.189Z,230
2018-05-26T13:51:06.334Z,235
2018-05-26T13:52:06.168Z,245
2018-05-26T13:53:06.797Z,250
2018-05-26T13:54:06.376Z,255
2018-05-26T13:55:06.202Z,270
2018-05-26T13:56:06.404Z,290
2018-05-26T13:57:05.966Z,315
2018-05-26T13:58:06.213Z,310
2018-05-26T13:59:06.469Z,290
2018-05-26T14:00:05.965Z,275
2018-05-26T14:01:06.492Z,270
2018-05-26T14:02:05.960Z,270